Time;durP1;ratioP1;P1;durP2;ratioP2;P2;SDS_P1;SDS_P2;PMS_P1;PMS_P2;Temp;Humidity;BMP_temperature;BMP_pressure;BME280_temperature;BME280_humidity;BME280_pressure;Samples;Min_cycle;Max_cycle;Signal;HPM_P1;HPM_P2
2021/03/24 00:03:40;;;;;;;37.58;19.25;;;;;;;4.36;76.58;99522.19;4390976;79;21765;-88
2021/03/24 00:09:41;;;;;;;35.13;20.05;;;;;;;4.30;76.77;99526.98;4380137;79;21151;-91
2021/03/24 00:16:04;;;;;;;37.78;20.00;;;;;;;4.29;76.84;99529.44;4376391;79;21158;-88
2021/03/24 00:22:08;;;;;;;31.82;18.75;;;;;;;4.28;76.74;99526.50;4375386;79;21194;-88
2021/03/24 00:28:11;;;;;;;34.50;18.23;;;;;;;4.26;76.86;99520.59;4378255;79;21166;-87
2021/03/24 00:47:49;;;;;;;29.52;17.10;;;;;;;4.29;76.89;99521.89;4242838;82;21795;-88
2021/03/24 00:53:50;;;;;;;33.98;17.62;;;;;;;4.25;76.96;99516.30;4363625;79;21247;-88
2021/03/24 00:59:52;;;;;;;26.37;15.38;;;;;;;4.20;77.02;99515.66;4212670;82;21138;-89
2021/03/24 01:05:54;;;;;;;26.60;15.65;;;;;;;4.20;77.02;99508.33;4347904;82;21214;-88
2021/03/24 01:19:25;;;;;;;24.65;14.03;;;;;;;4.15;77.32;99513.13;4353990;79;21494;-87
2021/03/24 01:25:27;;;;;;;27.58;14.13;;;;;;;4.07;77.57;99516.64;4367267;79;21155;-88
2021/03/24 01:38:57;;;;;;;22.00;14.03;;;;;;;4.02;77.86;99527.09;4383328;79;21159;-88
2021/03/24 01:45:19;;;;;;;22.73;13.93;;;;;;;4.04;78.16;99529.47;4376460;79;21520;-88
2021/03/24 01:51:38;;;;;;;23.00;14.13;;;;;;;4.04;78.10;99525.41;4372865;79;21340;-88
2021/03/24 01:57:46;;;;;;;26.12;15.40;;;;;;;4.01;77.91;99519.28;4366574;79;21187;-89
2021/03/24 02:04:36;;;;;;;21.93;12.33;;;;;;;3.99;78.10;99526.37;4395192;79;21335;-88
2021/03/24 02:11:08;;;;;;;26.52;15.13;;;;;;;4.01;78.18;99524.11;4224548;82;21103;-88
2021/03/24 02:17:21;;;;;;;23.52;14.35;;;;;;;3.99;78.27;99546.69;4376620;79;21212;-87
2021/03/24 02:23:49;;;;;;;24.23;12.65;;;;;;;3.96;78.35;99541.09;4377015;79;21296;-88
2021/03/24 02:30:34;;;;;;;18.55;12.63;;;;;;;3.95;78.35;99546.26;4398045;79;21690;-87
2021/03/24 02:36:43;;;;;;;19.27;13.32;;;;;;;3.96;78.42;99550.58;4408310;79;21198;-88
2021/03/24 02:43:13;;;;;;;25.68;14.95;;;;;;;3.92;78.47;99540.12;4369201;79;21696;-88
2021/03/24 02:49:22;;;;;;;21.42;12.55;;;;;;;3.91;78.52;99543.41;4397991;79;21314;-88
2021/03/24 02:55:25;;;;;;;26.60;15.13;;;;;;;3.93;78.59;99545.22;4385680;79;21163;-88
2021/03/24 03:02:31;;;;;;;24.50;14.83;;;;;;;3.96;78.53;99551.36;4348070;79;21178;-87
2021/03/24 03:29:30;;;;;;;27.30;13.53;;;;;;;3.96;78.49;99558.13;4421767;79;21222;-88
2021/03/24 03:35:37;;;;;;;34.48;19.60;;;;;;;3.97;78.59;99554.33;4331582;79;21203;-87
2021/03/24 03:42:18;;;;;;;;;;;;;;;3.97;78.57;99553.52;4350179;79;21198;-88
2021/03/24 03:48:26;;;;;;;40.43;22.05;;;;;;;3.94;78.87;99555.51;4382217;79;20195;-88
2021/03/24 03:54:50;;;;;;;40.95;23.40;;;;;;;3.90;78.86;99554.56;4288585;81;21130;-88
2021/03/24 04:01:31;;;;;;;45.83;24.15;;;;;;;3.90;78.78;99555.34;4212286;82;21152;-87
2021/03/24 04:34:26;;;;;;;42.50;25.32;;;;;;;3.94;78.97;99566.34;4324717;80;21691;-89
2021/03/24 04:41:07;;;;;;;48.40;27.27;;;;;;;3.93;78.96;99569.60;4327428;79;21860;-88
2021/03/24 04:47:42;;;;;;;64.97;31.23;;;;;;;3.89;79.06;99571.91;4192799;82;21222;-88
2021/03/24 04:54:21;;;;;;;48.38;26.75;;;;;;;3.88;78.99;99584.67;4147652;83;21170;-88
2021/03/24 05:00:39;;;;;;;51.15;26.40;;;;;;;3.90;79.06;99595.19;4177560;82;21206;-88
2021/03/24 05:07:31;;;;;;;50.33;26.97;;;;;;;3.95;79.04;99596.37;4073810;83;40777;-87
2021/03/24 05:13:57;;;;;;;47.13;26.90;;;;;;;3.95;79.06;99597.72;4167998;82;21229;-88
2021/03/24 05:20:52;;;;;;;49.00;26.40;;;;;;;3.97;79.20;99602.28;4466764;77;23065;-87
2021/03/24 05:27:18;;;;;;;51.15;29.82;;;;;;;3.93;79.11;99605.39;4438566;79;21717;-87
2021/03/24 05:40:59;;;;;;;55.85;30.43;;;;;;;4.01;79.18;99604.61;4241388;81;21172;-88
2021/03/24 05:47:58;;;;;;;52.08;28.45;;;;;;;4.01;79.23;99593.20;4233218;81;21269;-88
2021/03/24 06:16:13;;;;;;;50.15;27.13;;;;;;;4.20;79.28;99617.27;4243303;81;21152;-88
2021/03/24 06:29:20;;;;;;;45.40;26.23;;;;;;;4.29;79.18;99627.01;4250307;82;21179;-88
2021/03/24 06:36:10;;;;;;;45.35;23.98;;;;;;;4.35;79.15;99633.09;4253994;82;21614;-88
2021/03/24 06:42:48;;;;;;;41.63;24.77;;;;;;;4.32;78.90;99637.21;4231365;82;21687;-88
2021/03/24 06:55:57;;;;;;;42.23;24.47;;;;;;;4.50;78.67;99646.16;4216844;82;21922;-88
2021/03/24 07:09:31;;;;;;;41.58;22.37;;;;;;;4.60;78.66;99658.82;4251008;82;21309;-88
2021/03/24 07:15:43;;;;;;;48.92;25.77;;;;;;;4.67;78.42;99673.27;4252320;82;21609;-89
2021/03/24 07:22:16;;;;;;;52.75;30.08;;;;;;;4.78;78.71;99674.53;4251336;82;21186;-89
2021/03/24 07:36:20;;;;;;;53.90;28.02;;;;;;;4.97;78.41;99676.91;4250442;82;22158;-89
2021/03/24 07:49:59;;;;;;;45.78;24.52;;;;;;;5.15;78.44;99682.02;4235078;82;21622;-89
2021/03/24 07:56:23;;;;;;;52.15;27.45;;;;;;;5.34;78.19;99687.84;4224700;82;21199;-89
2021/03/24 08:03:19;;;;;;;49.70;25.02;;;;;;;5.43;77.89;99684.57;4255149;82;22245;-89
2021/03/24 08:52:59;;;;;;;39.58;20.95;;;;;;;5.62;76.71;99693.69;4063547;85;21460;-89
2021/03/24 09:00:07;;;;;;;51.50;22.82;;;;;;;5.73;76.80;99687.55;4501968;77;27328;-89
2021/03/24 09:06:56;;;;;;;32.45;17.92;;;;;;;5.76;76.63;99687.48;4412995;79;21196;-88
2021/03/24 09:19:51;;;;;;;34.73;16.57;;;;;;;5.73;76.02;99684.83;4291811;81;21206;-89
2021/03/24 09:33:23;;;;;;;35.92;18.60;;;;;;;5.73;75.85;99683.48;4394317;79;21189;-89
2021/03/24 09:40:09;;;;;;;41.45;18.12;;;;;;;5.69;75.74;99684.45;4102918;80;42376;-89
2021/03/24 09:46:52;;;;;;;49.65;20.40;;;;;;;5.64;75.66;99680.01;4074880;85;21626;-88
2021/03/24 10:00:18;;;;;;;41.50;19.55;;;;;;;5.60;75.47;99680.44;4340904;80;21156;-88
2021/03/24 10:06:50;;;;;;;46.23;17.20;;;;;;;5.66;75.45;99672.89;4299113;80;21843;-90
2021/03/24 10:13:27;;;;;;;46.35;19.48;;;;;;;5.71;74.76;99670.00;4304119;80;21712;-89
2021/03/24 10:19:46;;;;;;;42.83;18.57;;;;;;;5.74;74.94;99678.84;4315889;80;21212;-90
2021/03/24 10:39:57;;;;;;;40.73;17.55;;;;;;;5.97;73.63;99669.33;4278059;82;21188;-90
2021/03/24 10:46:30;;;;;;;43.05;18.00;;;;;;;6.04;73.06;99666.91;4286550;82;21216;-90
2021/03/24 10:52:46;;;;;;;46.25;17.12;;;;;;;6.01;72.66;99666.98;4308381;80;21220;-89
2021/03/24 10:59:12;;;;;;;45.65;19.10;;;;;;;6.06;72.36;99673.59;4291707;81;21242;-89
2021/03/24 11:05:28;;;;;;;46.33;15.20;;;;;;;6.01;72.88;99667.56;4267704;81;21456;-89
2021/03/24 11:33:23;;;;;;;42.05;17.65;;;;;;;5.89;72.38;99656.58;4339090;80;21164;-89
2021/03/24 11:39:32;;;;;;;43.83;19.73;;;;;;;5.91;72.29;99648.91;4353977;80;21093;-89
2021/03/24 11:45:36;;;;;;;37.40;17.87;;;;;;;5.92;72.21;99648.58;4360532;80;21331;-89
2021/03/24 11:58:59;;;;;;;35.90;18.77;;;;;;;6.00;71.93;99640.13;4353250;79;21148;-90
2021/03/24 12:05:19;;;;;;;31.97;17.50;;;;;;;6.08;71.91;99636.57;4385839;79;21129;-89
2021/03/24 12:11:31;;;;;;;41.53;19.50;;;;;;;6.14;71.19;99635.24;4387275;79;21145;-90
2021/03/24 12:17:35;;;;;;;31.35;16.25;;;;;;;6.20;70.92;99634.73;4395836;79;21131;-89
2021/03/24 12:23:37;;;;;;;35.08;18.37;;;;;;;6.29;70.80;99631.95;4389132;79;21208;-90
2021/03/24 12:29:46;;;;;;;28.05;16.75;;;;;;;6.44;70.34;99630.58;4387759;78;21149;-89
2021/03/24 12:36:02;;;;;;;36.90;20.15;;;;;;;6.59;70.40;99632.12;4385215;79;21148;-89
2021/03/24 12:42:21;;;;;;;41.92;20.70;;;;;;;6.63;69.70;99628.16;4240917;82;21290;-90
2021/03/24 12:54:39;;;;;;;31.45;18.27;;;;;;;6.82;69.22;99628.46;4444277;79;23020;-88
2021/03/24 13:00:58;;;;;;;35.17;18.40;;;;;;;6.73;68.95;99625.84;4385206;79;21830;-89
2021/03/24 13:07:20;;;;;;;30.52;18.57;;;;;;;6.65;68.62;99624.55;4375084;80;21173;-88
2021/03/24 13:13:55;;;;;;;34.33;19.00;;;;;;;6.51;69.06;99622.11;4372978;80;21167;-90
2021/03/24 13:20:14;;;;;;;28.80;18.02;;;;;;;6.44;68.54;99616.98;4339460;80;21277;-89
2021/03/24 13:26:35;;;;;;;31.57;17.52;;;;;;;6.33;68.56;99613.29;4337454;80;21193;-89
2021/03/24 13:39:52;;;;;;;35.70;19.87;;;;;;;6.40;69.37;99600.52;4357949;81;21177;-89
2021/03/24 13:53:10;;;;;;;39.27;22.95;;;;;;;6.62;69.06;99598.01;4228146;82;21377;-88
2021/03/24 13:59:36;;;;;;;34.73;20.30;;;;;;;6.75;69.08;99599.66;4125133;84;21211;-88
2021/03/24 14:06:14;;;;;;;34.90;19.87;;;;;;;6.94;68.43;99598.00;4222523;82;21169;-89
2021/03/24 14:13:03;;;;;;;38.08;20.85;;;;;;;7.08;68.53;99593.62;4462551;77;22920;-89
2021/03/24 14:19:25;;;;;;;37.93;21.77;;;;;;;7.08;68.56;99589.55;4392708;79;21164;-91
2021/03/24 14:25:37;;;;;;;37.40;20.65;;;;;;;7.07;68.45;99590.10;4399929;79;21328;-90
2021/03/24 14:32:09;;;;;;;32.20;20.08;;;;;;;6.99;68.26;99588.82;4399438;79;21170;-89
2021/03/24 14:38:37;;;;;;;28.57;18.20;;;;;;;7.01;68.38;99583.29;4404869;79;21130;-89
2021/03/24 14:45:15;;;;;;;33.78;18.75;;;;;;;7.11;68.32;99576.62;4397503;79;21179;-89
2021/03/24 15:06:01;;;;;;;37.05;20.15;;;;;;;7.21;67.64;99570.72;4295380;80;21182;-89
2021/03/24 15:19:47;;;;;;;37.33;19.37;;;;;;;7.17;67.45;99563.02;4368077;80;21188;-89
2021/03/24 15:26:13;;;;;;;29.87;18.40;;;;;;;7.12;67.41;99572.20;4385395;79;21142;-90
2021/03/24 15:32:34;;;;;;;38.83;22.62;;;;;;;7.10;67.38;99565.48;4181019;83;21365;-88
2021/03/24 15:38:47;;;;;;;38.75;21.73;;;;;;;7.15;67.36;99563.91;4447858;78;22492;-89
2021/03/24 15:45:13;;;;;;;34.33;19.95;;;;;;;7.05;67.38;99565.14;4388188;80;21207;-90
2021/03/24 15:51:29;;;;;;;40.98;20.90;;;;;;;7.01;67.22;99562.88;4382736;80;21186;-89
2021/03/24 15:57:54;;;;;;;;;;;;;;;6.97;67.21;99572.05;4380731;80;21372;-91
2021/03/24 16:04:19;;;;;;;88.27;39.90;;;;;;;6.89;67.16;99577.02;4388947;80;20604;-90
2021/03/24 16:10:45;;;;;;;79.53;42.07;;;;;;;6.80;67.13;99575.73;4382465;79;21206;-91
2021/03/24 16:17:28;;;;;;;82.10;43.10;;;;;;;6.58;68.03;99578.83;4382906;79;21204;-92
2021/03/24 16:23:44;;;;;;;88.60;44.63;;;;;;;6.41;68.81;99578.98;4383471;79;21722;-89
2021/03/24 16:29:58;;;;;;;76.12;40.75;;;;;;;6.37;68.80;99585.65;4298107;81;21226;-90
2021/03/24 16:36:38;;;;;;;77.90;42.45;;;;;;;6.22;69.11;99580.83;4283146;81;21356;-89
2021/03/24 16:43:05;;;;;;;84.70;43.70;;;;;;;6.13;69.50;99591.53;4281495;81;21217;-90
2021/03/24 16:49:46;;;;;;;85.87;43.85;;;;;;;6.05;69.78;99587.75;4268038;82;21173;-90
2021/03/24 16:55:56;;;;;;;77.92;42.75;;;;;;;6.05;69.91;99583.67;4302662;81;21221;-91
2021/03/24 17:03:04;;;;;;;91.57;46.13;;;;;;;6.07;70.27;99581.98;4594904;76;22948;-88
2021/03/24 17:16:39;;;;;;;89.62;45.43;;;;;;;5.87;70.69;99583.55;4455682;78;21184;-88
2021/03/24 17:36:10;;;;;;;;;;;;;;;5.50;71.06;99593.08;3901512;83;9999810;-89
2021/03/24 17:42:51;;;;;;;124.05;59.88;;;;;;;5.41;71.32;99591.77;3998307;87;20244;-88
2021/03/24 17:49:15;;;;;;;123.18;61.55;;;;;;;5.40;71.77;99592.91;4010396;87;21613;-89
2021/03/24 17:56:13;;;;;;;118.08;59.10;;;;;;;5.38;71.95;99601.12;4067215;84;21197;-89
2021/03/24 18:02:23;;;;;;;109.92;55.92;;;;;;;5.40;72.16;99599.70;4031698;85;21216;-88
2021/03/24 18:08:41;;;;;;;126.30;63.85;;;;;;;5.35;72.20;99605.85;4597751;75;23103;-88
2021/03/24 18:14:44;;;;;;;122.42;59.80;;;;;;;5.18;72.34;99608.08;4432375;78;21888;-90
2021/03/24 18:20:54;;;;;;;114.62;57.60;;;;;;;5.16;72.58;99608.15;4449553;78;21629;-88
2021/03/24 18:27:16;;;;;;;114.42;59.60;;;;;;;5.17;72.97;99611.89;4447297;78;21169;-89
2021/03/24 18:33:39;;;;;;;122.60;62.13;;;;;;;5.13;72.95;99612.87;4461366;78;21307;-88
2021/03/24 18:39:45;;;;;;;112.17;56.02;;;;;;;5.10;73.04;99607.55;4441856;78;21737;-88
2021/03/24 18:45:49;;;;;;;114.20;57.98;;;;;;;5.08;73.24;99611.13;4452685;78;21117;-90
2021/03/24 18:52:07;;;;;;;110.55;58.10;;;;;;;5.09;73.54;99619.50;4438676;77;21310;-88
2021/03/24 18:58:24;;;;;;;114.85;56.60;;;;;;;5.13;73.76;99617.75;4439248;78;21665;-89
2021/03/24 19:04:37;;;;;;;119.67;60.08;;;;;;;5.14;73.61;99620.69;4446201;78;21160;-88
2021/03/24 19:11:33;;;;;;;118.93;59.93;;;;;;;5.03;73.89;99621.38;4437687;78;21128;-88
2021/03/24 19:32:48;;;;;;;134.27;64.77;;;;;;;4.99;74.42;99626.64;4247525;82;21190;-88
2021/03/24 19:39:15;;;;;;;131.67;63.63;;;;;;;4.97;74.47;99628.88;4118669;82;9999542;-88
2021/03/24 19:46:13;;;;;;;126.60;62.73;;;;;;;4.88;74.83;99618.61;4675846;74;22877;-88
2021/03/24 19:52:21;;;;;;;134.22;67.37;;;;;;;4.83;74.77;99620.94;4440695;78;21216;-88
2021/03/24 20:05:03;;;;;;;132.85;64.53;;;;;;;5.00;74.85;99630.94;4638438;75;21208;-89
2021/03/24 20:11:10;;;;;;;129.35;63.02;;;;;;;4.86;74.77;99639.83;4635935;75;21100;-88
2021/03/24 20:17:40;;;;;;;129.53;63.45;;;;;;;4.81;75.15;99637.27;4648241;75;21670;-87
2021/03/24 20:24:27;;;;;;;131.10;64.10;;;;;;;4.93;75.21;99632.01;4609934;75;26393;-87
2021/03/24 20:37:31;;;;;;;118.30;59.55;;;;;;;4.81;75.51;99635.92;4400171;78;21734;-87
2021/03/24 20:43:48;;;;;;;124.35;61.53;;;;;;;4.81;75.41;99635.37;4367028;80;21193;-88
2021/03/24 20:49:50;;;;;;;94.70;46.27;;;;;;;4.79;75.55;99641.66;4381761;80;21712;-88
2021/03/24 20:55:54;;;;;;;119.90;59.95;;;;;;;4.84;75.64;99642.86;4392172;78;21817;-88
2021/03/24 21:02:16;;;;;;;117.05;58.02;;;;;;;4.86;75.59;99641.19;4410940;78;21170;-89
2021/03/24 21:08:32;;;;;;;116.93;56.02;;;;;;;4.84;75.38;99640.70;4388775;78;21198;-88
2021/03/24 21:21:48;;;;;;;109.75;51.83;;;;;;;4.76;75.17;99639.59;4245089;83;21294;-88
2021/03/24 21:28:23;;;;;;;105.35;54.23;;;;;;;4.74;75.07;99640.47;4232962;81;21225;-88
2021/03/24 21:34:43;;;;;;;114.05;57.58;;;;;;;4.74;74.99;99647.83;4248560;82;21233;-88
2021/03/24 21:40:50;;;;;;;110.35;55.70;;;;;;;4.71;75.04;99647.11;4290280;80;21437;-89
2021/03/24 21:46:58;;;;;;;115.42;57.83;;;;;;;4.71;75.11;99651.19;4238154;81;21201;-88
2021/03/24 21:53:01;;;;;;;121.53;55.45;;;;;;;4.66;75.19;99655.41;4380981;79;21204;-89
2021/03/24 21:59:50;;;;;;;110.92;55.43;;;;;;;4.64;75.16;99650.86;4390838;79;21165;-88
2021/03/24 22:05:55;;;;;;;113.17;52.90;;;;;;;4.64;75.20;99652.20;4381869;80;21126;-88
2021/03/24 22:12:09;;;;;;;106.35;52.98;;;;;;;4.63;75.25;99651.44;4347593;79;21948;-88
2021/03/24 22:18:13;;;;;;;105.32;52.17;;;;;;;4.62;75.35;99647.11;4375456;80;21240;-88
2021/03/24 22:24:41;;;;;;;113.72;53.15;;;;;;;4.59;75.41;99647.75;4425363;79;21170;-88
2021/03/24 22:59:02;;;;;;;103.13;48.50;;;;;;;4.50;75.55;99631.24;4339185;81;21654;-88
2021/03/24 23:05:06;;;;;;;93.00;46.50;;;;;;;4.42;75.38;99628.77;4358742;80;21205;-88
2021/03/24 23:25:33;;;;;;;101.10;49.88;;;;;;;4.43;75.83;99628.23;4218935;82;21220;-88
2021/03/24 23:32:02;;;;;;;103.87;49.15;;;;;;;4.37;75.86;99632.22;4091322;86;21788;-87
2021/03/24 23:38:15;;;;;;;109.70;50.48;;;;;;;4.36;76.06;99630.05;4446516;79;23224;-89
2021/03/24 23:44:18;;;;;;;96.05;48.73;;;;;;;4.27;75.99;99622.48;4380444;80;21698;-90
2021/03/24 23:50:31;;;;;;;106.22;49.38;;;;;;;4.21;76.20;99620.24;4379215;80;21130;-89
2021/03/24 23:56:41;;;;;;;111.37;51.48;;;;;;;4.19;76.42;99619.20;4377316;80;21204;-89
